sensor_id;sensor_type;location;lat;lon;timestamp;P1;durP1;ratioP1;P2;durP2;ratioP2
59052;SDS011;44843;44.728;10.396;2023-10-13T00:01:22;15.07;;;9.20;;
59052;SDS011;44843;44.728;10.396;2023-10-13T00:03:47;17.02;;;8.45;;
59052;SDS011;44843;44.728;10.396;2023-10-13T00:06:13;15.27;;;8.18;;
59052;SDS011;44843;44.728;10.396;2023-10-13T00:08:38;15.63;;;8.88;;
59052;SDS011;44843;44.728;10.396;2023-10-13T00:11:04;18.17;;;9.07;;
59052;SDS011;44843;44.728;10.396;2023-10-13T00:13:30;17.63;;;9.70;;
59052;SDS011;44843;44.728;10.396;2023-10-13T00:16:05;15.75;;;8.68;;
59052;SDS011;44843;44.728;10.396;2023-10-13T00:18:34;17.88;;;8.63;;
59052;SDS011;44843;44.728;10.396;2023-10-13T00:21:00;18.23;;;10.38;;
59052;SDS011;44843;44.728;10.396;2023-10-13T00:23:25;17.35;;;9.02;;
59052;SDS011;44843;44.728;10.396;2023-10-13T00:25:54;20.58;;;9.20;;
59052;SDS011;44843;44.728;10.396;2023-10-13T00:28:26;15.73;;;8.95;;
59052;SDS011;44843;44.728;10.396;2023-10-13T00:31:00;24.50;;;9.75;;
59052;SDS011;44843;44.728;10.396;2023-10-13T00:33:26;19.50;;;8.73;;
59052;SDS011;44843;44.728;10.396;2023-10-13T00:35:52;23.83;;;9.75;;
59052;SDS011;44843;44.728;10.396;2023-10-13T00:38:18;19.00;;;9.35;;
59052;SDS011;44843;44.728;10.396;2023-10-13T00:40:44;14.98;;;8.38;;
59052;SDS011;44843;44.728;10.396;2023-10-13T00:43:16;14.90;;;8.63;;
59052;SDS011;44843;44.728;10.396;2023-10-13T00:45:51;16.83;;;8.98;;
59052;SDS011;44843;44.728;10.396;2023-10-13T00:48:24;13.18;;;7.38;;
59052;SDS011;44843;44.728;10.396;2023-10-13T00:50:55;14.35;;;7.43;;
59052;SDS011;44843;44.728;10.396;2023-10-13T00:53:21;15.48;;;7.65;;
59052;SDS011;44843;44.728;10.396;2023-10-13T00:55:47;13.63;;;6.88;;
59052;SDS011;44843;44.728;10.396;2023-10-13T00:58:12;12.45;;;6.97;;
59052;SDS011;44843;44.728;10.396;2023-10-13T01:00:40;12.05;;;7.30;;
59052;SDS011;44843;44.728;10.396;2023-10-13T01:03:14;14.43;;;7.13;;
59052;SDS011;44843;44.728;10.396;2023-10-13T01:05:39;14.93;;;7.15;;
59052;SDS011;44843;44.728;10.396;2023-10-13T01:08:05;13.80;;;7.63;;
59052;SDS011;44843;44.728;10.396;2023-10-13T01:10:35;12.50;;;6.65;;
59052;SDS011;44843;44.728;10.396;2023-10-13T01:13:02;14.70;;;6.72;;
59052;SDS011;44843;44.728;10.396;2023-10-13T01:15:27;12.15;;;5.93;;
59052;SDS011;44843;44.728;10.396;2023-10-13T01:18:11;11.20;;;6.43;;
59052;SDS011;44843;44.728;10.396;2023-10-13T01:20:38;11.15;;;6.35;;
59052;SDS011;44843;44.728;10.396;2023-10-13T01:23:17;10.25;;;6.40;;
59052;SDS011;44843;44.728;10.396;2023-10-13T01:25:49;10.70;;;6.25;;
59052;SDS011;44843;44.728;10.396;2023-10-13T01:28:15;11.13;;;6.22;;
59052;SDS011;44843;44.728;10.396;2023-10-13T01:30:42;8.88;;;5.72;;
59052;SDS011;44843;44.728;10.396;2023-10-13T01:33:07;10.38;;;6.57;;
59052;SDS011;44843;44.728;10.396;2023-10-13T01:35:34;16.98;;;7.20;;
59052;SDS011;44843;44.728;10.396;2023-10-13T01:38:07;11.75;;;6.75;;
59052;SDS011;44843;44.728;10.396;2023-10-13T01:40:32;11.98;;;6.38;;
59052;SDS011;44843;44.728;10.396;2023-10-13T01:43:00;8.63;;;5.55;;
59052;SDS011;44843;44.728;10.396;2023-10-13T01:45:25;9.68;;;5.20;;
59052;SDS011;44843;44.728;10.396;2023-10-13T01:47:54;13.38;;;6.25;;
59052;SDS011;44843;44.728;10.396;2023-10-13T01:50:19;12.48;;;6.50;;
59052;SDS011;44843;44.728;10.396;2023-10-13T01:52:54;10.77;;;6.30;;
59052;SDS011;44843;44.728;10.396;2023-10-13T01:55:30;10.40;;;6.43;;
59052;SDS011;44843;44.728;10.396;2023-10-13T01:57:56;11.35;;;6.85;;
59052;SDS011;44843;44.728;10.396;2023-10-13T02:00:21;12.68;;;6.50;;
59052;SDS011;44843;44.728;10.396;2023-10-13T02:02:46;9.80;;;5.68;;
59052;SDS011;44843;44.728;10.396;2023-10-13T02:05:15;10.73;;;6.05;;
59052;SDS011;44843;44.728;10.396;2023-10-13T02:07:42;16.60;;;6.47;;
59052;SDS011;44843;44.728;10.396;2023-10-13T02:10:10;12.43;;;7.30;;
59052;SDS011;44843;44.728;10.396;2023-10-13T02:12:37;10.85;;;6.13;;
59052;SDS011;44843;44.728;10.396;2023-10-13T02:15:09;12.23;;;6.22;;
59052;SDS011;44843;44.728;10.396;2023-10-13T02:17:37;11.15;;;5.50;;
59052;SDS011;44843;44.728;10.396;2023-10-13T02:20:06;11.20;;;5.80;;
59052;SDS011;44843;44.728;10.396;2023-10-13T02:22:41;12.07;;;5.70;;
59052;SDS011;44843;44.728;10.396;2023-10-13T02:25:14;14.10;;;6.05;;
59052;SDS011;44843;44.728;10.396;2023-10-13T02:27:42;10.50;;;5.90;;
59052;SDS011;44843;44.728;10.396;2023-10-13T02:30:08;12.48;;;6.13;;
59052;SDS011;44843;44.728;10.396;2023-10-13T02:32:40;14.57;;;6.07;;
59052;SDS011;44843;44.728;10.396;2023-10-13T02:35:08;10.93;;;6.05;;
59052;SDS011;44843;44.728;10.396;2023-10-13T02:37:40;10.25;;;6.03;;
59052;SDS011;44843;44.728;10.396;2023-10-13T02:40:08;11.75;;;5.68;;
59052;SDS011;44843;44.728;10.396;2023-10-13T02:42:34;12.27;;;6.15;;
59052;SDS011;44843;44.728;10.396;2023-10-13T02:44:59;8.43;;;5.40;;
59052;SDS011;44843;44.728;10.396;2023-10-13T02:47:24;16.55;;;6.15;;
59052;SDS011;44843;44.728;10.396;2023-10-13T02:49:51;14.70;;;6.30;;
59052;SDS011;44843;44.728;10.396;2023-10-13T02:52:17;10.85;;;6.32;;
59052;SDS011;44843;44.728;10.396;2023-10-13T02:54:42;20.02;;;7.30;;
59052;SDS011;44843;44.728;10.396;2023-10-13T02:57:18;10.98;;;5.95;;
59052;SDS011;44843;44.728;10.396;2023-10-13T02:59:44;14.48;;;6.53;;
59052;SDS011;44843;44.728;10.396;2023-10-13T03:02:12;12.18;;;6.10;;
59052;SDS011;44843;44.728;10.396;2023-10-13T03:04:55;10.07;;;6.20;;
59052;SDS011;44843;44.728;10.396;2023-10-13T03:07:24;13.70;;;6.63;;
59052;SDS011;44843;44.728;10.396;2023-10-13T03:09:53;16.25;;;6.50;;
59052;SDS011;44843;44.728;10.396;2023-10-13T03:12:22;12.00;;;6.78;;
59052;SDS011;44843;44.728;10.396;2023-10-13T03:14:49;9.45;;;6.68;;
59052;SDS011;44843;44.728;10.396;2023-10-13T03:17:19;10.75;;;6.68;;
59052;SDS011;44843;44.728;10.396;2023-10-13T03:22:20;11.40;;;6.18;;
59052;SDS011;44843;44.728;10.396;2023-10-13T03:24:55;9.98;;;6.82;;
59052;SDS011;44843;44.728;10.396;2023-10-13T03:27:25;12.18;;;6.60;;
59052;SDS011;44843;44.728;10.396;2023-10-13T03:30:04;12.02;;;6.20;;
59052;SDS011;44843;44.728;10.396;2023-10-13T03:32:35;10.25;;;6.13;;
59052;SDS011;44843;44.728;10.396;2023-10-13T03:35:01;10.98;;;6.35;;
59052;SDS011;44843;44.728;10.396;2023-10-13T03:37:26;11.88;;;6.65;;
59052;SDS011;44843;44.728;10.396;2023-10-13T03:40:02;9.27;;;5.65;;
59052;SDS011;44843;44.728;10.396;2023-10-13T03:42:31;12.60;;;6.25;;
59052;SDS011;44843;44.728;10.396;2023-10-13T03:44:57;10.13;;;5.97;;
59052;SDS011;44843;44.728;10.396;2023-10-13T03:47:22;11.07;;;6.05;;
59052;SDS011;44843;44.728;10.396;2023-10-13T03:49:57;11.70;;;6.82;;
59052;SDS011;44843;44.728;10.396;2023-10-13T03:52:40;10.05;;;6.72;;
59052;SDS011;44843;44.728;10.396;2023-10-13T03:55:06;10.93;;;6.55;;
59052;SDS011;44843;44.728;10.396;2023-10-13T03:57:31;11.32;;;6.40;;
59052;SDS011;44843;44.728;10.396;2023-10-13T03:59:59;10.90;;;6.82;;
59052;SDS011;44843;44.728;10.396;2023-10-13T04:02:33;9.60;;;6.75;;
59052;SDS011;44843;44.728;10.396;2023-10-13T04:04:58;13.25;;;6.53;;
59052;SDS011;44843;44.728;10.396;2023-10-13T04:07:32;10.75;;;7.07;;
59052;SDS011;44843;44.728;10.396;2023-10-13T04:09:57;12.45;;;6.57;;
59052;SDS011;44843;44.728;10.396;2023-10-13T04:15:25;13.60;;;6.53;;
59052;SDS011;44843;44.728;10.396;2023-10-13T04:18:01;12.20;;;7.03;;
59052;SDS011;44843;44.728;10.396;2023-10-13T04:20:38;9.77;;;6.15;;
59052;SDS011;44843;44.728;10.396;2023-10-13T04:23:04;10.93;;;6.20;;
59052;SDS011;44843;44.728;10.396;2023-10-13T04:25:44;13.32;;;6.82;;
59052;SDS011;44843;44.728;10.396;2023-10-13T04:28:13;16.55;;;6.72;;
59052;SDS011;44843;44.728;10.396;2023-10-13T04:30:46;11.10;;;6.35;;
59052;SDS011;44843;44.728;10.396;2023-10-13T04:33:20;10.35;;;6.60;;
59052;SDS011;44843;44.728;10.396;2023-10-13T04:36:09;8.93;;;6.10;;
59052;SDS011;44843;44.728;10.396;2023-10-13T04:38:56;10.70;;;6.50;;
59052;SDS011;44843;44.728;10.396;2023-10-13T04:41:31;10.43;;;5.78;;
59052;SDS011;44843;44.728;10.396;2023-10-13T04:44:03;13.82;;;6.93;;
59052;SDS011;44843;44.728;10.396;2023-10-13T04:46:47;11.52;;;6.15;;
59052;SDS011;44843;44.728;10.396;2023-10-13T04:49:12;9.23;;;6.20;;
59052;SDS011;44843;44.728;10.396;2023-10-13T04:51:56;11.48;;;6.40;;
59052;SDS011;44843;44.728;10.396;2023-10-13T04:54:27;12.38;;;6.13;;
59052;SDS011;44843;44.728;10.396;2023-10-13T04:57:10;13.27;;;6.22;;
59052;SDS011;44843;44.728;10.396;2023-10-13T04:59:44;11.55;;;6.47;;
59052;SDS011;44843;44.728;10.396;2023-10-13T05:02:28;10.30;;;6.30;;
59052;SDS011;44843;44.728;10.396;2023-10-13T05:05:14;10.82;;;5.70;;
59052;SDS011;44843;44.728;10.396;2023-10-13T05:07:42;15.18;;;6.30;;
59052;SDS011;44843;44.728;10.396;2023-10-13T05:10:27;15.60;;;6.85;;
59052;SDS011;44843;44.728;10.396;2023-10-13T05:13:11;13.88;;;6.25;;
59052;SDS011;44843;44.728;10.396;2023-10-13T05:18:38;8.93;;;5.90;;
59052;SDS011;44843;44.728;10.396;2023-10-13T05:24:06;15.98;;;6.70;;
59052;SDS011;44843;44.728;10.396;2023-10-13T05:29:34;14.53;;;7.00;;
59052;SDS011;44843;44.728;10.396;2023-10-13T05:32:18;13.27;;;6.78;;
59052;SDS011;44843;44.728;10.396;2023-10-13T05:37:47;13.18;;;7.20;;
59052;SDS011;44843;44.728;10.396;2023-10-13T05:40:31;10.95;;;6.20;;
59052;SDS011;44843;44.728;10.396;2023-10-13T05:46:03;13.00;;;6.85;;
59052;SDS011;44843;44.728;10.396;2023-10-13T05:48:47;14.45;;;7.57;;
59052;SDS011;44843;44.728;10.396;2023-10-13T05:51:27;13.10;;;6.88;;
59052;SDS011;44843;44.728;10.396;2023-10-13T05:54:05;17.05;;;7.45;;
59052;SDS011;44843;44.728;10.396;2023-10-13T05:56:43;12.07;;;6.20;;
59052;SDS011;44843;44.728;10.396;2023-10-13T05:59:27;12.60;;;6.75;;
59052;SDS011;44843;44.728;10.396;2023-10-13T06:02:16;11.98;;;6.53;;
59052;SDS011;44843;44.728;10.396;2023-10-13T06:05:03;10.65;;;6.85;;
59052;SDS011;44843;44.728;10.396;2023-10-13T06:08:01;14.27;;;6.68;;
59052;SDS011;44843;44.728;10.396;2023-10-13T06:10:45;12.15;;;6.70;;
59052;SDS011;44843;44.728;10.396;2023-10-13T06:16:13;11.02;;;6.30;;
59052;SDS011;44843;44.728;10.396;2023-10-13T06:18:57;12.65;;;6.47;;
59052;SDS011;44843;44.728;10.396;2023-10-13T06:21:42;13.05;;;7.32;;
59052;SDS011;44843;44.728;10.396;2023-10-13T06:24:26;17.27;;;6.75;;
59052;SDS011;44843;44.728;10.396;2023-10-13T06:27:09;19.05;;;7.50;;
59052;SDS011;44843;44.728;10.396;2023-10-13T06:32:22;14.52;;;7.35;;
59052;SDS011;44843;44.728;10.396;2023-10-13T06:34:53;14.00;;;7.50;;
59052;SDS011;44843;44.728;10.396;2023-10-13T06:37:43;11.73;;;6.47;;
59052;SDS011;44843;44.728;10.396;2023-10-13T06:40:09;12.40;;;6.68;;
59052;SDS011;44843;44.728;10.396;2023-10-13T06:42:53;14.15;;;7.22;;
59052;SDS011;44843;44.728;10.396;2023-10-13T06:45:20;14.27;;;7.15;;
59052;SDS011;44843;44.728;10.396;2023-10-13T06:47:47;10.73;;;7.00;;
59052;SDS011;44843;44.728;10.396;2023-10-13T06:50:14;12.18;;;6.72;;
59052;SDS011;44843;44.728;10.396;2023-10-13T06:52:45;13.80;;;6.93;;
59052;SDS011;44843;44.728;10.396;2023-10-13T06:55:10;14.88;;;7.05;;
59052;SDS011;44843;44.728;10.396;2023-10-13T06:57:56;9.63;;;6.22;;
59052;SDS011;44843;44.728;10.396;2023-10-13T07:00:27;14.90;;;5.78;;
59052;SDS011;44843;44.728;10.396;2023-10-13T07:03:04;12.57;;;6.20;;
59052;SDS011;44843;44.728;10.396;2023-10-13T07:05:36;11.40;;;6.88;;
59052;SDS011;44843;44.728;10.396;2023-10-13T07:08:06;10.15;;;6.32;;
59052;SDS011;44843;44.728;10.396;2023-10-13T07:10:32;14.85;;;6.35;;
59052;SDS011;44843;44.728;10.396;2023-10-13T07:13:09;10.95;;;6.70;;
59052;SDS011;44843;44.728;10.396;2023-10-13T07:15:34;14.18;;;6.60;;
59052;SDS011;44843;44.728;10.396;2023-10-13T07:20:36;12.23;;;7.95;;
59052;SDS011;44843;44.728;10.396;2023-10-13T07:23:02;11.77;;;6.72;;
59052;SDS011;44843;44.728;10.396;2023-10-13T07:25:31;14.88;;;6.97;;
59052;SDS011;44843;44.728;10.396;2023-10-13T07:28:02;11.98;;;7.35;;
59052;SDS011;44843;44.728;10.396;2023-10-13T07:30:34;13.95;;;7.80;;
59052;SDS011;44843;44.728;10.396;2023-10-13T07:35:32;13.23;;;7.88;;
59052;SDS011;44843;44.728;10.396;2023-10-13T07:38:00;15.52;;;7.78;;
59052;SDS011;44843;44.728;10.396;2023-10-13T07:40:26;13.75;;;8.63;;
59052;SDS011;44843;44.728;10.396;2023-10-13T07:42:51;14.77;;;7.10;;
59052;SDS011;44843;44.728;10.396;2023-10-13T07:45:17;12.85;;;8.27;;
59052;SDS011;44843;44.728;10.396;2023-10-13T07:47:50;13.82;;;7.43;;
59052;SDS011;44843;44.728;10.396;2023-10-13T07:50:16;13.70;;;7.60;;
59052;SDS011;44843;44.728;10.396;2023-10-13T07:52:50;14.52;;;7.65;;
59052;SDS011;44843;44.728;10.396;2023-10-13T07:55:30;14.50;;;7.68;;
59052;SDS011;44843;44.728;10.396;2023-10-13T07:57:57;12.88;;;7.38;;
59052;SDS011;44843;44.728;10.396;2023-10-13T08:00:24;12.20;;;7.20;;
59052;SDS011;44843;44.728;10.396;2023-10-13T08:02:58;25.05;;;7.95;;
59052;SDS011;44843;44.728;10.396;2023-10-13T08:05:44;14.18;;;7.35;;
59052;SDS011;44843;44.728;10.396;2023-10-13T08:08:28;19.70;;;7.95;;
59052;SDS011;44843;44.728;10.396;2023-10-13T08:11:06;16.48;;;7.82;;
59052;SDS011;44843;44.728;10.396;2023-10-13T08:16:19;12.82;;;8.15;;
59052;SDS011;44843;44.728;10.396;2023-10-13T08:18:51;17.63;;;9.13;;
59052;SDS011;44843;44.728;10.396;2023-10-13T08:21:16;16.60;;;9.80;;
59052;SDS011;44843;44.728;10.396;2023-10-13T08:23:43;16.85;;;9.75;;
59052;SDS011;44843;44.728;10.396;2023-10-13T08:26:21;19.17;;;10.65;;
59052;SDS011;44843;44.728;10.396;2023-10-13T08:29:02;22.25;;;11.57;;
59052;SDS011;44843;44.728;10.396;2023-10-13T08:31:46;20.98;;;11.88;;
59052;SDS011;44843;44.728;10.396;2023-10-13T08:34:31;21.38;;;11.90;;
59052;SDS011;44843;44.728;10.396;2023-10-13T08:37:12;23.60;;;11.98;;
59052;SDS011;44843;44.728;10.396;2023-10-13T08:39:47;24.20;;;12.57;;
59052;SDS011;44843;44.728;10.396;2023-10-13T08:42:28;22.60;;;11.27;;
59052;SDS011;44843;44.728;10.396;2023-10-13T08:45:25;24.05;;;11.35;;
59052;SDS011;44843;44.728;10.396;2023-10-13T08:47:52;26.52;;;11.82;;
59052;SDS011;44843;44.728;10.396;2023-10-13T08:53:26;22.70;;;11.63;;
59052;SDS011;44843;44.728;10.396;2023-10-13T08:55:58;19.42;;;10.27;;
59052;SDS011;44843;44.728;10.396;2023-10-13T08:58:46;20.02;;;11.23;;
59052;SDS011;44843;44.728;10.396;2023-10-13T09:04:02;33.47;;;10.18;;
59052;SDS011;44843;44.728;10.396;2023-10-13T09:06:54;22.48;;;11.18;;
59052;SDS011;44843;44.728;10.396;2023-10-13T09:14:39;20.23;;;9.90;;
59052;SDS011;44843;44.728;10.396;2023-10-13T09:17:09;21.88;;;11.48;;
59052;SDS011;44843;44.728;10.396;2023-10-13T09:19:46;20.58;;;10.60;;
59052;SDS011;44843;44.728;10.396;2023-10-13T09:22:19;21.15;;;9.93;;
59052;SDS011;44843;44.728;10.396;2023-10-13T09:24:50;17.92;;;9.95;;
59052;SDS011;44843;44.728;10.396;2023-10-13T09:27:16;18.27;;;10.77;;
59052;SDS011;44843;44.728;10.396;2023-10-13T09:29:41;16.10;;;10.13;;
59052;SDS011;44843;44.728;10.396;2023-10-13T09:32:09;17.02;;;9.48;;
59052;SDS011;44843;44.728;10.396;2023-10-13T09:34:37;17.90;;;10.80;;
59052;SDS011;44843;44.728;10.396;2023-10-13T09:37:05;17.70;;;8.82;;
59052;SDS011;44843;44.728;10.396;2023-10-13T09:39:32;19.13;;;11.15;;
59052;SDS011;44843;44.728;10.396;2023-10-13T09:42:06;22.05;;;10.85;;
59052;SDS011;44843;44.728;10.396;2023-10-13T09:44:35;18.33;;;10.52;;
59052;SDS011;44843;44.728;10.396;2023-10-13T09:47:02;18.67;;;10.70;;
59052;SDS011;44843;44.728;10.396;2023-10-13T09:49:42;26.67;;;11.25;;
59052;SDS011;44843;44.728;10.396;2023-10-13T09:52:14;20.10;;;11.18;;
59052;SDS011;44843;44.728;10.396;2023-10-13T09:54:44;16.40;;;10.38;;
59052;SDS011;44843;44.728;10.396;2023-10-13T09:57:15;22.55;;;10.77;;
59052;SDS011;44843;44.728;10.396;2023-10-13T09:59:50;19.48;;;10.40;;
59052;SDS011;44843;44.728;10.396;2023-10-13T10:02:18;20.13;;;10.00;;
59052;SDS011;44843;44.728;10.396;2023-10-13T10:04:53;18.77;;;9.68;;
59052;SDS011;44843;44.728;10.396;2023-10-13T10:07:25;16.70;;;10.32;;
59052;SDS011;44843;44.728;10.396;2023-10-13T10:09:56;23.95;;;11.15;;
59052;SDS011;44843;44.728;10.396;2023-10-13T10:17:16;16.08;;;10.02;;
59052;SDS011;44843;44.728;10.396;2023-10-13T10:19:49;16.30;;;10.38;;
59052;SDS011;44843;44.728;10.396;2023-10-13T10:22:24;18.98;;;11.05;;
59052;SDS011;44843;44.728;10.396;2023-10-13T10:24:57;24.58;;;9.63;;
59052;SDS011;44843;44.728;10.396;2023-10-13T10:27:28;17.88;;;10.40;;
59052;SDS011;44843;44.728;10.396;2023-10-13T10:29:54;18.73;;;9.55;;
59052;SDS011;44843;44.728;10.396;2023-10-13T10:32:19;15.02;;;9.13;;
59052;SDS011;44843;44.728;10.396;2023-10-13T10:34:44;20.17;;;11.25;;
59052;SDS011;44843;44.728;10.396;2023-10-13T10:37:10;16.65;;;9.73;;
59052;SDS011;44843;44.728;10.396;2023-10-13T10:39:36;25.23;;;11.32;;
59052;SDS011;44843;44.728;10.396;2023-10-13T10:42:11;15.43;;;9.70;;
59052;SDS011;44843;44.728;10.396;2023-10-13T10:44:49;17.73;;;10.20;;
59052;SDS011;44843;44.728;10.396;2023-10-13T10:47:20;18.90;;;9.68;;
59052;SDS011;44843;44.728;10.396;2023-10-13T10:50:01;19.83;;;10.93;;
59052;SDS011;44843;44.728;10.396;2023-10-13T10:52:44;18.30;;;10.68;;
59052;SDS011;44843;44.728;10.396;2023-10-13T10:55:09;19.38;;;9.70;;
59052;SDS011;44843;44.728;10.396;2023-10-13T10:57:38;17.88;;;9.30;;
59052;SDS011;44843;44.728;10.396;2023-10-13T11:00:17;17.48;;;8.68;;
59052;SDS011;44843;44.728;10.396;2023-10-13T11:02:52;17.60;;;9.10;;
59052;SDS011;44843;44.728;10.396;2023-10-13T11:05:17;14.73;;;9.38;;
59052;SDS011;44843;44.728;10.396;2023-10-13T11:07:45;15.02;;;8.93;;
59052;SDS011;44843;44.728;10.396;2023-10-13T11:10:16;19.15;;;9.25;;
59052;SDS011;44843;44.728;10.396;2023-10-13T11:12:58;17.67;;;8.68;;
59052;SDS011;44843;44.728;10.396;2023-10-13T11:15:46;16.20;;;8.93;;
59052;SDS011;44843;44.728;10.396;2023-10-13T11:18:11;15.65;;;8.55;;
59052;SDS011;44843;44.728;10.396;2023-10-13T11:20:59;15.13;;;8.32;;
59052;SDS011;44843;44.728;10.396;2023-10-13T11:23:24;14.55;;;8.50;;
59052;SDS011;44843;44.728;10.396;2023-10-13T11:25:59;13.82;;;7.05;;
59052;SDS011;44843;44.728;10.396;2023-10-13T11:28:24;13.25;;;7.90;;
59052;SDS011;44843;44.728;10.396;2023-10-13T11:30:53;15.63;;;8.38;;
59052;SDS011;44843;44.728;10.396;2023-10-13T11:33:23;13.27;;;6.95;;
59052;SDS011;44843;44.728;10.396;2023-10-13T11:35:49;16.17;;;7.85;;
59052;SDS011;44843;44.728;10.396;2023-10-13T11:38:20;15.07;;;6.07;;
59052;SDS011;44843;44.728;10.396;2023-10-13T11:41:06;16.83;;;8.00;;
59052;SDS011;44843;44.728;10.396;2023-10-13T11:43:37;14.43;;;8.45;;
59052;SDS011;44843;44.728;10.396;2023-10-13T11:46:15;20.17;;;7.75;;
59052;SDS011;44843;44.728;10.396;2023-10-13T11:48:41;15.23;;;7.47;;
59052;SDS011;44843;44.728;10.396;2023-10-13T11:51:07;14.00;;;7.40;;
59052;SDS011;44843;44.728;10.396;2023-10-13T11:53:35;12.07;;;6.68;;
59052;SDS011;44843;44.728;10.396;2023-10-13T11:56:00;12.35;;;6.50;;
59052;SDS011;44843;44.728;10.396;2023-10-13T11:58:26;13.90;;;6.50;;
59052;SDS011;44843;44.728;10.396;2023-10-13T12:00:53;12.65;;;7.18;;
59052;SDS011;44843;44.728;10.396;2023-10-13T12:03:26;13.90;;;7.22;;
59052;SDS011;44843;44.728;10.396;2023-10-13T12:08:57;12.52;;;6.45;;
59052;SDS011;44843;44.728;10.396;2023-10-13T12:11:36;12.80;;;6.82;;
59052;SDS011;44843;44.728;10.396;2023-10-13T12:14:04;15.07;;;7.32;;
59052;SDS011;44843;44.728;10.396;2023-10-13T12:16:41;8.98;;;6.35;;
59052;SDS011;44843;44.728;10.396;2023-10-13T12:19:07;12.13;;;7.35;;
59052;SDS011;44843;44.728;10.396;2023-10-13T12:21:36;12.52;;;7.03;;
59052;SDS011;44843;44.728;10.396;2023-10-13T12:24:02;13.23;;;7.38;;
59052;SDS011;44843;44.728;10.396;2023-10-13T12:26:28;16.88;;;7.40;;
59052;SDS011;44843;44.728;10.396;2023-10-13T12:28:58;15.52;;;7.15;;
59052;SDS011;44843;44.728;10.396;2023-10-13T12:31:31;11.70;;;6.50;;
59052;SDS011;44843;44.728;10.396;2023-10-13T12:33:57;12.10;;;6.65;;
59052;SDS011;44843;44.728;10.396;2023-10-13T12:36:31;12.35;;;7.47;;
59052;SDS011;44843;44.728;10.396;2023-10-13T12:39:06;14.55;;;6.47;;
59052;SDS011;44843;44.728;10.396;2023-10-13T12:41:34;12.35;;;5.93;;
59052;SDS011;44843;44.728;10.396;2023-10-13T12:44:17;13.10;;;7.90;;
59052;SDS011;44843;44.728;10.396;2023-10-13T12:47:01;10.55;;;5.63;;
59052;SDS011;44843;44.728;10.396;2023-10-13T12:49:45;15.27;;;6.95;;
59052;SDS011;44843;44.728;10.396;2023-10-13T12:52:14;9.00;;;6.03;;
59052;SDS011;44843;44.728;10.396;2023-10-13T12:54:44;15.88;;;7.45;;
59052;SDS011;44843;44.728;10.396;2023-10-13T12:57:15;14.50;;;7.72;;
59052;SDS011;44843;44.728;10.396;2023-10-13T12:59:41;10.27;;;6.80;;
59052;SDS011;44843;44.728;10.396;2023-10-13T13:02:06;15.95;;;8.85;;
59052;SDS011;44843;44.728;10.396;2023-10-13T13:04:32;10.75;;;7.47;;
59052;SDS011;44843;44.728;10.396;2023-10-13T13:07:02;13.13;;;8.18;;
59052;SDS011;44843;44.728;10.396;2023-10-13T13:09:28;16.23;;;8.13;;
59052;SDS011;44843;44.728;10.396;2023-10-13T13:11:53;10.93;;;7.90;;
59052;SDS011;44843;44.728;10.396;2023-10-13T13:14:22;12.15;;;7.63;;
59052;SDS011;44843;44.728;10.396;2023-10-13T13:16:53;16.83;;;6.95;;
59052;SDS011;44843;44.728;10.396;2023-10-13T13:19:19;12.82;;;7.15;;
59052;SDS011;44843;44.728;10.396;2023-10-13T13:21:50;16.35;;;7.93;;
59052;SDS011;44843;44.728;10.396;2023-10-13T13:24:16;13.90;;;7.88;;
59052;SDS011;44843;44.728;10.396;2023-10-13T13:26:41;14.73;;;7.90;;
59052;SDS011;44843;44.728;10.396;2023-10-13T13:29:06;12.25;;;7.05;;
59052;SDS011;44843;44.728;10.396;2023-10-13T13:31:35;12.88;;;6.70;;
59052;SDS011;44843;44.728;10.396;2023-10-13T13:34:06;14.13;;;7.13;;
59052;SDS011;44843;44.728;10.396;2023-10-13T13:36:31;17.42;;;8.98;;
59052;SDS011;44843;44.728;10.396;2023-10-13T13:38:57;15.65;;;9.45;;
59052;SDS011;44843;44.728;10.396;2023-10-13T13:41:25;15.30;;;8.65;;
59052;SDS011;44843;44.728;10.396;2023-10-13T13:43:50;12.75;;;8.82;;
59052;SDS011;44843;44.728;10.396;2023-10-13T13:46:19;16.38;;;7.85;;
59052;SDS011;44843;44.728;10.396;2023-10-13T13:48:50;14.50;;;7.60;;
59052;SDS011;44843;44.728;10.396;2023-10-13T13:51:16;11.38;;;7.55;;
59052;SDS011;44843;44.728;10.396;2023-10-13T13:53:45;14.63;;;8.55;;
59052;SDS011;44843;44.728;10.396;2023-10-13T13:56:13;15.65;;;8.38;;
59052;SDS011;44843;44.728;10.396;2023-10-13T13:58:46;15.60;;;8.82;;
59052;SDS011;44843;44.728;10.396;2023-10-13T14:01:12;16.25;;;8.50;;
59052;SDS011;44843;44.728;10.396;2023-10-13T14:03:40;19.50;;;8.95;;
59052;SDS011;44843;44.728;10.396;2023-10-13T14:06:12;17.38;;;8.38;;
59052;SDS011;44843;44.728;10.396;2023-10-13T14:08:42;13.43;;;7.97;;
59052;SDS011;44843;44.728;10.396;2023-10-13T14:11:09;18.60;;;8.57;;
59052;SDS011;44843;44.728;10.396;2023-10-13T14:13:38;14.27;;;8.20;;
59052;SDS011;44843;44.728;10.396;2023-10-13T14:16:18;14.25;;;8.00;;
59052;SDS011;44843;44.728;10.396;2023-10-13T14:18:44;13.98;;;8.63;;
59052;SDS011;44843;44.728;10.396;2023-10-13T14:21:10;13.13;;;8.32;;
59052;SDS011;44843;44.728;10.396;2023-10-13T14:23:35;13.55;;;9.18;;
59052;SDS011;44843;44.728;10.396;2023-10-13T14:26:01;18.52;;;8.70;;
59052;SDS011;44843;44.728;10.396;2023-10-13T14:28:26;16.52;;;9.30;;
59052;SDS011;44843;44.728;10.396;2023-10-13T14:30:59;16.40;;;9.02;;
59052;SDS011;44843;44.728;10.396;2023-10-13T14:33:25;14.48;;;8.70;;
59052;SDS011;44843;44.728;10.396;2023-10-13T14:35:50;17.98;;;9.43;;
59052;SDS011;44843;44.728;10.396;2023-10-13T14:38:16;18.90;;;9.68;;
59052;SDS011;44843;44.728;10.396;2023-10-13T14:40:41;18.13;;;9.75;;
59052;SDS011;44843;44.728;10.396;2023-10-13T14:43:06;17.95;;;9.50;;
59052;SDS011;44843;44.728;10.396;2023-10-13T14:45:34;17.13;;;9.18;;
59052;SDS011;44843;44.728;10.396;2023-10-13T14:48:00;18.60;;;9.75;;
59052;SDS011;44843;44.728;10.396;2023-10-13T14:50:26;19.63;;;9.38;;
59052;SDS011;44843;44.728;10.396;2023-10-13T14:52:53;18.95;;;9.75;;
59052;SDS011;44843;44.728;10.396;2023-10-13T14:55:18;19.77;;;10.27;;
59052;SDS011;44843;44.728;10.396;2023-10-13T14:57:44;16.08;;;9.35;;
59052;SDS011;44843;44.728;10.396;2023-10-13T15:00:10;18.30;;;9.40;;
59052;SDS011;44843;44.728;10.396;2023-10-13T15:02:38;17.95;;;10.50;;
59052;SDS011;44843;44.728;10.396;2023-10-13T15:05:03;16.15;;;9.80;;
59052;SDS011;44843;44.728;10.396;2023-10-13T15:07:29;18.55;;;11.07;;
59052;SDS011;44843;44.728;10.396;2023-10-13T15:09:54;20.33;;;9.82;;
59052;SDS011;44843;44.728;10.396;2023-10-13T15:12:22;19.23;;;10.15;;
59052;SDS011;44843;44.728;10.396;2023-10-13T15:14:47;15.98;;;8.80;;
59052;SDS011;44843;44.728;10.396;2023-10-13T15:17:12;33.88;;;10.63;;
59052;SDS011;44843;44.728;10.396;2023-10-13T15:19:41;18.55;;;9.57;;
59052;SDS011;44843;44.728;10.396;2023-10-13T15:22:08;17.30;;;10.32;;
59052;SDS011;44843;44.728;10.396;2023-10-13T15:24:41;19.60;;;11.43;;
59052;SDS011;44843;44.728;10.396;2023-10-13T15:27:10;17.92;;;10.43;;
59052;SDS011;44843;44.728;10.396;2023-10-13T15:29:35;18.10;;;9.90;;
59052;SDS011;44843;44.728;10.396;2023-10-13T15:32:01;26.45;;;10.93;;
59052;SDS011;44843;44.728;10.396;2023-10-13T15:34:27;22.45;;;11.05;;
59052;SDS011;44843;44.728;10.396;2023-10-13T15:36:52;16.38;;;10.05;;